createdAt,value
2019-04-21T00:00:16.800Z,0.00
2019-04-21T00:01:14.613Z,0.00
2019-04-21T00:02:21.294Z,0.00
2019-04-21T00:03:21.423Z,0.00
2019-04-21T00:04:26.046Z,0.00
2019-04-21T00:05:29.878Z,0.00
2019-04-21T00:06:36.709Z,0.00
2019-04-21T00:07:32.062Z,0.00
2019-04-21T00:09:42.628Z,0.00
2019-04-21T00:10:36.418Z,0.00
2019-04-21T00:11:36.124Z,0.00
2019-04-21T00:12:28.637Z,0.00
2019-04-21T00:13:26.791Z,0.00
2019-04-21T00:14:28.596Z,0.00
2019-04-21T00:15:24.376Z,0.00
2019-04-21T00:16:17.208Z,0.00
2019-04-21T00:17:17.535Z,0.00
2019-04-21T00:18:14.393Z,0.00
2019-04-21T00:19:19.647Z,0.00
2019-04-21T00:20:23.729Z,0.00
2019-04-21T00:21:23.243Z,0.00
2019-04-21T00:22:23.713Z,0.00
2019-04-21T00:23:32.838Z,0.00
2019-04-21T00:24:25.090Z,0.00
2019-04-21T00:25:27.532Z,0.00
2019-04-21T00:26:32.945Z,0.00
2019-04-21T00:27:28.528Z,0.00
2019-04-21T00:28:37.754Z,0.00
2019-04-21T00:29:35.397Z,0.00
2019-04-21T00:30:35.558Z,0.00
2019-04-21T00:31:29.307Z,0.00
2019-04-21T00:32:25.645Z,0.00
2019-04-21T00:33:20.746Z,0.00
2019-04-21T00:34:13.376Z,0.00
2019-04-21T00:35:18.727Z,0.00
2019-04-21T00:36:22.023Z,0.00
2019-04-21T00:37:25.713Z,0.00
2019-04-21T00:38:32.173Z,0.00
2019-04-21T00:39:43.340Z,0.00
2019-04-21T00:40:35.207Z,0.00
2019-04-21T00:41:39.915Z,0.00
2019-04-21T00:42:34.275Z,0.00
2019-04-21T00:43:27.972Z,0.00
2019-04-21T00:44:24.555Z,0.00
2019-04-21T00:45:27.507Z,0.00
2019-04-21T00:46:31.158Z,0.00
2019-04-21T00:47:34.747Z,0.00
2019-04-21T00:48:34.463Z,0.00
2019-04-21T00:49:31.639Z,0.00
2019-04-21T00:50:40.452Z,0.00
2019-04-21T00:51:43.902Z,0.00
2019-04-21T00:52:48.858Z,0.00
2019-04-21T00:53:44.116Z,0.00
2019-04-21T00:54:41.742Z,0.00
2019-04-21T00:55:41.039Z,0.00
2019-04-21T00:56:34.022Z,0.00
2019-04-21T00:57:38.897Z,0.00
2019-04-21T00:58:39.298Z,0.00
2019-04-21T00:59:34.917Z,0.00
2019-04-21T01:00:32.572Z,0.00
2019-04-21T01:01:31.293Z,0.00
2019-04-21T01:02:43.671Z,0.00
2019-04-21T01:04:44.633Z,0.00
2019-04-21T01:05:50.151Z,0.00
2019-04-21T01:06:47.928Z,0.00
2019-04-21T01:07:42.032Z,0.00
2019-04-21T01:08:41.409Z,0.00
2019-04-21T01:09:37.356Z,0.00
2019-04-21T01:10:36.048Z,0.00
2019-04-21T01:11:44.453Z,0.00
2019-04-21T01:12:42.016Z,0.00
2019-04-21T01:13:47.892Z,0.00
2019-04-21T01:14:54.158Z,0.00
2019-04-21T01:15:49.721Z,0.00
2019-04-21T01:16:47.356Z,0.00
2019-04-21T01:17:46.055Z,0.00
2019-04-21T01:18:47.274Z,0.00
2019-04-21T01:19:41.239Z,0.00
2019-04-21T01:20:23.012Z,0.00
2019-04-21T01:21:23.001Z,0.00
2019-04-21T01:22:23.014Z,0.00
2019-04-21T01:23:23.429Z,0.00
2019-04-21T01:24:31.870Z,0.00
2019-04-21T01:25:33.202Z,0.00
2019-04-21T01:26:37.181Z,0.00
2019-04-21T01:27:45.669Z,0.00
2019-04-21T01:28:40.051Z,0.00
2019-04-21T01:29:51.452Z,0.00
2019-04-21T01:30:50.337Z,0.00
2019-04-21T01:31:36.309Z,0.00
2019-04-21T01:32:46.861Z,0.00
2019-04-21T01:33:44.981Z,0.00
2019-04-21T01:34:45.513Z,0.00
2019-04-21T01:35:44.896Z,0.00
2019-04-21T01:36:38.570Z,0.00
2019-04-21T01:37:52.412Z,0.00
2019-04-21T01:38:52.498Z,0.00
2019-04-21T01:39:48.583Z,0.00
2019-04-21T01:40:51.646Z,0.00
2019-04-21T01:41:46.302Z,0.00
2019-04-21T01:42:48.148Z,0.00
2019-04-21T01:43:43.078Z,0.00
2019-04-21T01:44:48.416Z,0.00
2019-04-21T01:45:43.515Z,0.00
2019-04-21T01:46:40.678Z,0.00
2019-04-21T01:47:40.502Z,0.00
2019-04-21T01:48:39.053Z,0.00
2019-04-21T01:49:34.924Z,0.00
2019-04-21T01:50:40.964Z,0.00
2019-04-21T01:51:45.297Z,0.00
2019-04-21T01:52:53.140Z,0.00
2019-04-21T01:53:42.412Z,0.00
2019-04-21T01:54:53.469Z,0.00
2019-04-21T01:55:45.636Z,0.00
2019-04-21T01:56:43.189Z,0.00
2019-04-21T01:57:37.796Z,0.00
2019-04-21T01:58:34.158Z,0.00
2019-04-21T01:59:39.586Z,0.00
2019-04-21T02:00:38.999Z,0.00
2019-04-21T02:01:42.550Z,0.00
2019-04-21T02:02:46.213Z,0.00
2019-04-21T02:03:52.835Z,0.00
2019-04-21T02:04:50.058Z,0.00
2019-04-21T02:05:44.339Z,0.00
2019-04-21T02:06:45.552Z,0.00
2019-04-21T02:07:44.279Z,0.00
2019-04-21T02:08:43.497Z,0.00
2019-04-21T02:09:46.381Z,0.00
2019-04-21T02:10:46.232Z,0.00
2019-04-21T02:11:43.239Z,0.00
2019-04-21T02:12:47.875Z,0.00
2019-04-21T02:13:46.840Z,0.00
2019-04-21T02:14:50.336Z,0.00
2019-04-21T02:15:48.950Z,0.00
2019-04-21T02:16:40.437Z,0.00
2019-04-21T02:17:43.397Z,0.00
2019-04-21T02:18:39.086Z,0.00
2019-04-21T02:19:36.342Z,0.00
2019-04-21T02:20:31.734Z,0.00
2019-04-21T02:21:39.346Z,0.00
2019-04-21T02:23:01.926Z,0.00
2019-04-21T02:23:46.460Z,0.00
2019-04-21T02:24:49.697Z,0.00
2019-04-21T02:25:47.145Z,0.00
2019-04-21T02:26:47.166Z,0.00
2019-04-21T02:27:47.504Z,0.00
2019-04-21T02:28:51.620Z,0.00
2019-04-21T02:29:53.246Z,0.00
2019-04-21T02:30:56.911Z,0.00
2019-04-21T02:31:55.392Z,0.00
2019-04-21T02:35:18.738Z,0.00
2019-04-21T02:36:00.531Z,0.00
2019-04-21T02:37:07.215Z,0.00
2019-04-21T02:38:03.852Z,0.00
2019-04-21T02:39:03.380Z,0.00
2019-04-21T02:39:56.771Z,0.00
2019-04-21T02:41:55.866Z,0.00
2019-04-21T02:43:00.207Z,0.00
2019-04-21T02:44:52.049Z,0.00
2019-04-21T02:46:02.112Z,0.00
2019-04-21T02:47:57.266Z,0.00
2019-04-21T02:48:56.444Z,0.00
2019-04-21T02:50:01.913Z,0.00
2019-04-21T02:50:45.124Z,0.00
2019-04-21T02:51:54.942Z,0.00
2019-04-21T02:52:53.892Z,0.00
2019-04-21T02:54:11.925Z,0.00
2019-04-21T02:55:50.800Z,0.00
2019-04-21T02:57:01.667Z,0.00
2019-04-21T02:57:59.953Z,0.00
2019-04-21T02:59:59.977Z,0.00
2019-04-21T03:01:14.428Z,0.00
2019-04-21T03:01:55.940Z,0.00
2019-04-21T03:03:56.178Z,0.00
2019-04-21T03:06:15.346Z,0.00
2019-04-21T03:07:11.387Z,0.00
2019-04-21T03:08:05.703Z,0.00
2019-04-21T03:09:57.936Z,0.00
2019-04-21T03:11:08.679Z,0.00
2019-04-21T03:13:07.674Z,0.00
2019-04-21T03:14:05.621Z,0.00
2019-04-21T03:15:04.259Z,0.00
2019-04-21T03:16:11.783Z,0.00
2019-04-21T03:17:10.080Z,0.00
2019-04-21T03:18:08.220Z,0.00
2019-04-21T03:20:04.452Z,0.00
2019-04-21T03:22:07.172Z,0.00
2019-04-21T03:23:12.697Z,0.00
2019-04-21T03:24:03.936Z,0.00
2019-04-21T03:26:10.226Z,0.00
2019-04-21T03:29:03.601Z,0.00
2019-04-21T03:36:37.974Z,0.00
2019-04-21T03:38:05.691Z,0.00
2019-04-21T03:39:04.954Z,0.00
2019-04-21T03:39:59.877Z,0.00
2019-04-21T03:41:04.023Z,0.00
2019-04-21T03:42:07.395Z,0.00
2019-04-21T03:43:04.549Z,4.00
2019-04-21T03:44:06.603Z,0.00
2019-04-21T03:44:59.071Z,0.00
2019-04-21T03:46:01.282Z,4.00
2019-04-21T03:47:11.297Z,4.00
2019-04-21T03:48:01.164Z,4.00
2019-04-21T03:51:09.459Z,4.00
2019-04-21T03:52:15.251Z,4.00
2019-04-21T03:53:02.881Z,8.00
2019-04-21T03:54:00.670Z,8.00
2019-04-21T03:55:28.160Z,8.00
2019-04-21T03:57:17.828Z,16.00
2019-04-21T03:58:16.934Z,16.00
2019-04-21T04:00:10.945Z,24.00
2019-04-21T04:03:35.025Z,36.00
2019-04-21T04:05:05.726Z,48.00
2019-04-21T04:06:13.351Z,56.00
2019-04-21T04:07:10.998Z,60.00
2019-04-21T04:08:18.767Z,72.00
2019-04-21T04:09:09.685Z,84.00
2019-04-21T04:10:08.434Z,92.00
2019-04-21T04:11:14.343Z,104.00
2019-04-21T04:11:54.793Z,116.00
2019-04-21T04:13:04.999Z,132.00
2019-04-21T04:14:12.935Z,144.00
2019-04-21T04:15:03.065Z,160.00
2019-04-21T04:17:11.662Z,196.00
2019-04-21T04:18:57.684Z,236.00
2019-04-21T04:20:22.469Z,260.00
2019-04-21T04:21:15.073Z,288.00
2019-04-21T04:22:09.409Z,308.00
2019-04-21T04:23:02.738Z,336.00
2019-04-21T04:25:05.168Z,396.00
2019-04-21T04:27:11.152Z,464.00
2019-04-21T04:30:10.368Z,564.00
2019-04-21T04:31:05.117Z,604.00
2019-04-21T04:32:00.816Z,640.00
2019-04-21T04:32:56.667Z,680.00
2019-04-21T04:34:09.987Z,720.00
2019-04-21T04:35:03.334Z,764.00
2019-04-21T04:37:07.442Z,852.00
2019-04-21T04:38:07.139Z,896.00
2019-04-21T04:39:21.333Z,940.00
2019-04-21T04:41:06.219Z,1032.00
2019-04-21T04:42:27.061Z,1080.00
2019-04-21T04:43:09.106Z,1128.00
2019-04-21T04:44:17.310Z,1176.00
2019-04-21T04:46:02.635Z,1276.00
2019-04-21T04:49:11.476Z,1424.00
2019-04-21T04:51:16.290Z,1528.00
2019-04-21T04:52:19.574Z,1576.00
2019-04-21T04:52:56.708Z,1628.00
2019-04-21T04:53:50.770Z,1680.00
2019-04-21T04:56:08.348Z,1784.00
2019-04-21T04:57:08.259Z,1832.00
2019-04-21T05:00:14.901Z,1992.00
2019-04-21T05:01:26.781Z,2040.00
2019-04-21T05:02:15.216Z,2100.00
2019-04-21T05:03:01.025Z,2152.00
2019-04-21T05:04:06.260Z,2200.00
2019-04-21T05:07:17.583Z,2368.00
2019-04-21T05:09:23.518Z,2488.00
2019-04-21T05:10:05.897Z,2532.00
2019-04-21T05:11:23.405Z,2584.00
2019-04-21T05:12:00.124Z,2636.00
2019-04-21T05:13:08.224Z,2688.00
2019-04-21T05:14:23.029Z,2740.00
2019-04-21T05:15:08.495Z,2788.00
2019-04-21T05:16:16.299Z,2840.00
2019-04-21T05:17:15.768Z,2892.00
2019-04-21T05:18:15.170Z,2948.00
2019-04-21T05:19:21.259Z,3004.00
2019-04-21T05:20:11.192Z,3052.00
2019-04-21T05:21:23.280Z,3104.00
2019-04-21T05:22:11.017Z,3156.00
2019-04-21T05:23:07.359Z,3212.00
2019-04-21T05:24:10.910Z,3268.00
2019-04-21T05:25:02.445Z,3460.00
2019-04-21T05:25:54.319Z,4216.00
2019-04-21T05:26:59.546Z,5184.00
2019-04-21T05:27:57.821Z,5812.00
2019-04-21T05:28:52.562Z,6004.00
2019-04-21T05:30:07.138Z,6096.00
2019-04-21T05:31:06.261Z,6196.00
2019-04-21T05:32:00.506Z,6316.00
2019-04-21T05:33:07.119Z,6384.00
2019-04-21T05:34:07.483Z,6428.00
2019-04-21T05:35:04.211Z,6524.00
2019-04-21T05:36:04.745Z,6608.00
2019-04-21T05:37:05.444Z,6660.00
2019-04-21T05:38:01.396Z,6768.00
2019-04-21T05:38:58.393Z,6840.00
2019-04-21T05:39:57.233Z,6848.00
2019-04-21T05:40:59.095Z,6892.00
2019-04-21T05:41:50.860Z,6956.00
2019-04-21T05:43:00.185Z,6972.00
2019-04-21T05:44:06.613Z,7032.00
2019-04-21T05:45:12.715Z,7116.00
2019-04-21T05:46:21.648Z,7188.00
2019-04-21T05:47:18.818Z,7240.00
2019-04-21T05:48:11.637Z,7272.00
2019-04-21T05:49:05.003Z,7300.00
2019-04-21T05:50:00.929Z,7308.00
2019-04-21T05:50:59.181Z,7332.00
2019-04-21T05:51:58.299Z,7356.00
2019-04-21T05:52:53.528Z,7384.00
2019-04-21T05:54:09.208Z,7404.00
2019-04-21T05:55:05.291Z,7400.00
2019-04-21T05:56:03.626Z,7420.00
2019-04-21T05:56:59.778Z,7448.00
2019-04-21T05:58:02.546Z,7496.00
2019-04-21T05:59:03.415Z,7532.00
2019-04-21T06:00:01.260Z,7568.00
2019-04-21T06:01:15.343Z,7612.00
2019-04-21T06:02:15.106Z,7660.00
2019-04-21T06:03:05.382Z,7688.00
2019-04-21T06:04:03.956Z,7736.00
2019-04-21T06:05:17.891Z,7792.00
2019-04-21T06:06:10.091Z,7844.00
2019-04-21T06:07:06.032Z,7904.00
2019-04-21T06:08:00.521Z,7952.00
2019-04-21T06:09:05.311Z,8000.00
2019-04-21T06:10:20.059Z,8052.00
2019-04-21T06:11:23.877Z,8104.00
2019-04-21T06:12:03.832Z,8164.00
2019-04-21T06:13:06.057Z,8220.00
2019-04-21T06:14:21.704Z,8296.00
2019-04-21T06:15:03.824Z,8376.00
2019-04-21T06:16:03.576Z,8428.00
2019-04-21T06:17:01.558Z,8452.00
2019-04-21T06:18:07.862Z,8492.00
2019-04-21T06:19:23.207Z,8544.00
2019-04-21T06:20:02.881Z,8576.00
2019-04-21T06:21:07.217Z,8632.00
2019-04-21T06:22:03.559Z,8676.00
2019-04-21T06:23:02.995Z,8712.00
2019-04-21T06:24:06.786Z,8740.00
2019-04-21T06:25:31.710Z,8808.00
2019-04-21T06:26:18.078Z,8852.00
2019-04-21T06:27:22.699Z,8860.00
2019-04-21T06:28:03.578Z,8932.00
2019-04-21T06:29:04.105Z,8996.00
2019-04-21T06:30:00.218Z,9052.00
2019-04-21T06:31:21.591Z,9096.00
2019-04-21T06:32:26.714Z,9176.00
2019-04-21T06:32:59.489Z,9224.00
2019-04-21T06:34:06.715Z,9272.00
2019-04-21T06:37:07.817Z,9456.00
2019-04-21T06:38:03.682Z,9536.00
2019-04-21T06:39:17.908Z,9596.00
2019-04-21T06:40:15.266Z,9640.00
2019-04-21T06:41:06.221Z,9704.00
2019-04-21T06:42:05.286Z,9792.00
2019-04-21T06:43:11.361Z,9844.00
2019-04-21T06:44:20.338Z,9904.00
2019-04-21T06:45:10.422Z,9976.00
2019-04-21T06:46:04.462Z,10028.00
2019-04-21T06:47:09.445Z,10084.00
2019-04-21T06:48:09.041Z,10140.00
2019-04-21T06:49:02.829Z,10168.00
2019-04-21T06:50:03.187Z,10220.00
2019-04-21T06:51:12.432Z,10296.00
2019-04-21T06:52:07.552Z,10336.00
2019-04-21T06:53:15.439Z,10408.00
2019-04-21T06:54:04.423Z,10464.00
2019-04-21T06:56:05.031Z,10560.00
2019-04-21T06:56:58.598Z,10636.00
2019-04-21T06:58:02.204Z,10672.00
2019-04-21T06:59:01.299Z,10756.00
2019-04-21T07:00:03.921Z,10804.00
2019-04-21T07:01:02.471Z,10824.00
2019-04-21T07:03:11.400Z,10936.00
2019-04-21T07:04:11.745Z,10992.00
2019-04-21T07:05:08.987Z,11048.00
2019-04-21T07:06:10.470Z,11132.00
2019-04-21T07:10:26.067Z,11336.00
2019-04-21T07:11:08.480Z,11416.00
2019-04-21T07:12:05.834Z,11460.00
2019-04-21T07:13:11.400Z,11512.00
2019-04-21T07:15:11.360Z,11628.00
2019-04-21T07:16:17.572Z,11708.00
2019-04-21T07:17:17.835Z,11788.00
2019-04-21T07:18:12.429Z,11848.00
2019-04-21T07:20:13.667Z,11928.00
2019-04-21T07:21:17.194Z,11992.00
2019-04-21T07:22:14.583Z,12044.00
2019-04-21T07:23:16.235Z,12076.00
2019-04-21T07:24:14.168Z,12128.00
2019-04-21T07:25:13.710Z,12176.00
2019-04-21T07:26:10.556Z,12200.00
2019-04-21T07:27:18.967Z,12236.00
2019-04-21T07:28:10.829Z,12256.00
2019-04-21T07:29:14.207Z,12328.00
2019-04-21T07:30:16.057Z,12352.00
2019-04-21T07:31:21.849Z,12420.00
2019-04-21T07:32:12.127Z,12432.00
2019-04-21T07:33:37.392Z,12532.00
2019-04-21T07:34:23.939Z,12600.00
2019-04-21T07:35:17.926Z,12596.00
2019-04-21T07:36:17.447Z,12668.00
2019-04-21T07:37:05.994Z,12736.00
2019-04-21T07:38:11.245Z,12784.00
2019-04-21T07:39:07.217Z,12824.00
2019-04-21T07:40:07.795Z,12852.00
2019-04-21T07:41:08.049Z,12884.00
2019-04-21T07:42:06.508Z,12976.00
2019-04-21T07:43:06.691Z,13016.00
2019-04-21T07:44:04.648Z,13092.00
2019-04-21T07:45:04.605Z,13152.00
2019-04-21T07:46:04.004Z,13232.00
2019-04-21T07:47:03.556Z,13324.00
2019-04-21T07:48:08.243Z,13412.00
2019-04-21T07:50:07.457Z,13488.00
2019-04-21T07:51:14.015Z,13528.00
2019-04-21T07:52:11.358Z,13588.00
2019-04-21T07:53:19.594Z,13668.00
2019-04-21T07:54:17.857Z,13704.00
2019-04-21T07:55:20.026Z,13780.00
2019-04-21T07:55:54.046Z,13848.00
2019-04-21T07:57:04.854Z,13868.00
2019-04-21T07:58:07.316Z,13936.00
2019-04-21T07:59:09.995Z,14020.00
2019-04-21T08:00:29.534Z,14060.00
2019-04-21T08:01:14.862Z,14112.00
2019-04-21T08:02:12.094Z,14184.00
2019-04-21T08:03:12.879Z,14300.00
2019-04-21T08:04:33.169Z,14368.00
2019-04-21T08:05:15.987Z,14448.00
2019-04-21T08:06:14.969Z,14496.00
2019-04-21T08:07:05.071Z,14584.00
2019-04-21T08:08:08.115Z,14596.00
2019-04-21T08:09:08.936Z,14656.00
2019-04-21T08:10:07.833Z,14692.00
2019-04-21T08:11:10.997Z,14760.00
2019-04-21T08:12:03.778Z,14824.00
2019-04-21T08:13:14.789Z,14884.00
2019-04-21T08:14:08.380Z,14960.00
2019-04-21T08:15:15.884Z,15036.00
2019-04-21T08:16:10.595Z,14880.00
2019-04-21T08:17:10.980Z,15096.00
2019-04-21T08:18:11.754Z,15144.00
2019-04-21T08:19:12.698Z,15232.00
2019-04-21T08:20:07.422Z,15284.00
2019-04-21T08:21:05.775Z,15292.00
2019-04-21T08:22:12.510Z,15312.00
2019-04-21T08:23:13.525Z,15372.00
2019-04-21T08:24:10.518Z,15464.00
2019-04-21T08:25:08.989Z,15512.00
2019-04-21T08:26:12.176Z,15512.00
2019-04-21T08:27:11.997Z,15548.00
2019-04-21T08:28:07.303Z,15568.00
2019-04-21T08:29:20.699Z,15596.00
2019-04-21T08:30:14.330Z,15664.00
2019-04-21T08:31:10.219Z,15688.00
2019-04-21T08:32:18.477Z,15732.00
2019-04-21T08:33:18.785Z,15720.00
2019-04-21T08:34:17.810Z,15756.00
2019-04-21T08:35:49.458Z,15780.00
2019-04-21T08:36:17.695Z,15772.00
2019-04-21T08:37:11.746Z,15824.00
2019-04-21T08:38:08.531Z,15860.00
2019-04-21T08:39:08.753Z,15908.00
2019-04-21T08:40:17.653Z,15932.00
2019-04-21T08:41:08.052Z,15972.00
2019-04-21T08:42:14.800Z,16020.00
2019-04-21T08:43:08.807Z,16048.00
2019-04-21T08:44:10.657Z,16088.00
2019-04-21T08:45:10.734Z,16092.00
2019-04-21T08:46:08.196Z,16100.00
2019-04-21T08:47:12.973Z,16140.00
2019-04-21T08:48:10.227Z,16152.00
2019-04-21T08:49:07.955Z,16192.00
2019-04-21T08:50:09.643Z,16228.00
2019-04-21T08:51:24.502Z,16272.00
2019-04-21T08:52:13.757Z,16284.00
2019-04-21T08:53:07.847Z,16324.00
2019-04-21T08:54:09.478Z,16388.00
2019-04-21T08:55:10.931Z,16448.00
2019-04-21T08:56:12.302Z,16484.00
2019-04-21T08:57:10.200Z,16500.00
2019-04-21T08:58:15.224Z,16520.00
2019-04-21T08:59:15.146Z,16536.00
2019-04-21T09:00:18.643Z,16596.00
2019-04-21T09:01:14.104Z,16612.00
2019-04-21T09:02:06.318Z,16624.00
2019-04-21T09:03:06.690Z,16648.00
2019-04-21T09:04:11.634Z,16652.00
2019-04-21T09:05:04.846Z,16676.00
2019-04-21T09:06:17.343Z,16756.00
2019-04-21T09:07:29.296Z,16732.00
2019-04-21T09:08:20.240Z,16704.00
2019-04-21T09:09:11.888Z,16688.00
2019-04-21T09:10:05.195Z,16732.00
2019-04-21T09:11:10.113Z,16732.00
2019-04-21T09:12:04.302Z,16768.00
2019-04-21T09:13:07.437Z,16768.00
2019-04-21T09:14:07.359Z,16772.00
2019-04-21T09:15:09.914Z,16792.00
2019-04-21T09:16:06.674Z,16828.00
2019-04-21T09:17:00.382Z,16840.00
2019-04-21T09:18:04.918Z,16864.00
2019-04-21T09:18:59.517Z,16836.00
2019-04-21T09:20:13.807Z,16832.00
2019-04-21T09:21:07.257Z,16836.00
2019-04-21T09:22:05.843Z,16840.00
2019-04-21T09:23:09.365Z,16848.00
2019-04-21T09:24:13.060Z,16864.00
2019-04-21T09:25:03.311Z,16832.00
2019-04-21T09:26:06.027Z,16888.00
2019-04-21T09:27:03.741Z,16908.00
2019-04-21T09:28:04.043Z,16908.00
2019-04-21T09:29:03.456Z,16888.00
2019-04-21T09:29:54.235Z,16872.00
2019-04-21T09:30:53.448Z,16884.00
2019-04-21T09:31:50.297Z,16916.00
2019-04-21T09:32:53.117Z,16888.00
2019-04-21T09:33:50.774Z,16852.00
2019-04-21T09:34:50.695Z,16884.00
2019-04-21T09:35:55.537Z,16904.00
2019-04-21T09:36:52.100Z,16792.00
2019-04-21T09:37:56.138Z,16800.00
2019-04-21T09:38:56.097Z,16820.00
2019-04-21T09:39:51.871Z,16824.00
2019-04-21T09:40:51.316Z,16876.00
2019-04-21T09:41:51.212Z,16912.00
2019-04-21T09:42:56.945Z,16924.00
2019-04-21T09:43:52.207Z,16888.00
2019-04-21T09:44:52.277Z,16936.00
2019-04-21T09:45:49.521Z,16912.00
2019-04-21T09:46:54.078Z,16976.00
2019-04-21T09:47:57.208Z,16936.00
2019-04-21T09:48:55.431Z,16920.00
2019-04-21T09:49:49.329Z,16892.00
2019-04-21T09:50:48.082Z,16900.00
2019-04-21T09:51:48.389Z,16920.00
2019-04-21T09:52:54.533Z,16924.00
2019-04-21T09:53:56.595Z,16944.00
2019-04-21T09:54:56.429Z,17008.00
2019-04-21T09:55:54.803Z,17020.00
2019-04-21T09:56:57.140Z,16944.00
2019-04-21T09:57:52.177Z,17012.00
2019-04-21T09:58:51.424Z,17000.00
2019-04-21T09:59:57.080Z,17048.00
2019-04-21T10:01:01.468Z,16964.00
2019-04-21T10:02:00.206Z,16952.00
2019-04-21T10:02:56.775Z,16976.00
2019-04-21T10:03:52.196Z,16948.00
2019-04-21T10:04:48.277Z,16928.00
2019-04-21T10:05:47.882Z,16940.00
2019-04-21T10:06:47.877Z,16912.00
2019-04-21T10:07:48.923Z,16900.00
2019-04-21T10:08:50.439Z,16892.00
2019-04-21T10:09:47.966Z,16864.00
2019-04-21T10:10:49.078Z,16808.00
2019-04-21T10:11:48.173Z,16832.00
2019-04-21T10:12:47.861Z,16844.00
2019-04-21T10:13:48.716Z,16796.00
2019-04-21T10:14:47.783Z,16840.00
2019-04-21T10:15:48.546Z,16852.00
2019-04-21T10:16:47.757Z,16756.00
2019-04-21T10:17:47.774Z,16732.00
2019-04-21T10:18:48.166Z,16808.00
2019-04-21T10:19:48.508Z,16792.00
2019-04-21T10:20:49.092Z,16700.00
2019-04-21T10:21:47.935Z,16708.00
2019-04-21T10:22:48.915Z,16692.00
2019-04-21T10:23:47.972Z,16628.00
2019-04-21T10:24:48.803Z,16624.00
2019-04-21T10:25:48.439Z,16628.00
2019-04-21T10:26:47.657Z,16636.00
2019-04-21T10:27:47.647Z,16712.00
2019-04-21T10:28:48.950Z,16632.00
2019-04-21T10:29:49.133Z,16560.00
2019-04-21T10:30:49.021Z,16556.00
2019-04-21T10:31:48.142Z,16536.00
2019-04-21T10:32:48.410Z,16524.00
2019-04-21T10:33:48.434Z,16544.00
2019-04-21T10:34:47.595Z,16548.00
2019-04-21T10:35:48.833Z,16540.00
2019-04-21T10:36:47.549Z,16484.00
2019-04-21T10:38:01.431Z,16448.00
2019-04-21T10:38:51.331Z,16436.00
2019-04-21T10:39:47.608Z,16372.00
2019-04-21T10:40:47.632Z,16340.00
2019-04-21T10:41:47.761Z,16300.00
2019-04-21T10:42:48.118Z,16268.00
2019-04-21T10:43:47.464Z,16208.00
2019-04-21T10:44:47.444Z,16220.00
2019-04-21T10:45:48.699Z,16208.00
2019-04-21T10:46:50.319Z,16168.00
2019-04-21T10:47:47.456Z,16140.00
2019-04-21T10:48:48.474Z,16136.00
2019-04-21T10:49:48.573Z,16140.00
2019-04-21T10:50:47.392Z,16048.00
2019-04-21T10:51:48.797Z,16084.00
2019-04-21T10:52:47.399Z,16068.00
2019-04-21T10:53:50.869Z,16004.00
2019-04-21T10:55:06.917Z,15984.00
2019-04-21T10:56:00.397Z,16056.00
2019-04-21T10:56:47.879Z,16068.00
2019-04-21T10:57:48.363Z,16080.00
2019-04-21T10:58:47.319Z,16140.00
2019-04-21T10:59:50.746Z,16136.00
2019-04-21T11:00:48.445Z,16184.00
2019-04-21T11:01:47.271Z,16200.00
2019-04-21T11:02:48.707Z,16196.00
2019-04-21T11:03:47.261Z,16132.00
2019-04-21T11:04:47.240Z,16132.00
2019-04-21T11:05:48.310Z,16128.00
2019-04-21T11:06:48.219Z,16072.00
2019-04-21T11:08:01.258Z,15960.00
2019-04-21T11:08:55.576Z,15912.00
2019-04-21T11:09:47.171Z,15916.00
2019-04-21T11:10:47.809Z,15784.00
2019-04-21T11:11:49.872Z,15824.00
2019-04-21T11:12:47.841Z,15864.00
2019-04-21T11:13:48.368Z,15792.00
2019-04-21T11:14:47.242Z,15768.00
2019-04-21T11:15:47.510Z,15716.00
2019-04-21T11:16:49.027Z,15724.00
2019-04-21T11:17:48.791Z,15672.00
2019-04-21T11:18:48.258Z,15624.00
2019-04-21T11:19:47.074Z,15560.00
2019-04-21T11:20:47.059Z,15572.00
2019-04-21T11:21:47.129Z,15600.00
2019-04-21T11:22:47.356Z,15560.00
2019-04-21T11:23:48.014Z,15540.00
2019-04-21T11:24:47.114Z,15464.00
2019-04-21T11:25:48.202Z,15416.00
2019-04-21T11:26:47.727Z,15392.00
2019-04-21T11:27:47.144Z,15332.00
2019-04-21T11:28:47.294Z,15352.00
2019-04-21T11:29:47.475Z,15340.00
2019-04-21T11:30:46.946Z,15272.00
2019-04-21T11:31:47.291Z,15240.00
2019-04-21T11:32:49.090Z,15312.00
2019-04-21T11:33:47.194Z,15256.00
2019-04-21T11:34:47.236Z,15280.00
2019-04-21T11:35:46.891Z,15260.00
2019-04-21T11:36:47.828Z,15224.00
2019-04-21T11:37:48.261Z,15192.00
2019-04-21T11:39:02.365Z,15176.00
2019-04-21T11:39:55.438Z,15136.00
2019-04-21T11:40:47.542Z,15116.00
2019-04-21T11:41:47.833Z,15128.00
2019-04-21T11:42:48.038Z,15096.00
2019-04-21T11:43:46.831Z,15096.00
2019-04-21T11:44:47.151Z,15084.00
2019-04-21T11:45:46.790Z,15024.00
2019-04-21T11:46:46.770Z,15068.00
2019-04-21T11:47:48.171Z,15108.00
2019-04-21T11:48:48.256Z,15032.00
2019-04-21T11:49:47.216Z,15052.00
2019-04-21T11:50:46.825Z,14996.00
2019-04-21T11:51:47.015Z,15024.00
2019-04-21T11:52:47.324Z,14960.00
2019-04-21T11:53:46.704Z,14972.00
2019-04-21T11:54:46.807Z,14956.00
2019-04-21T11:55:49.919Z,14860.00
2019-04-21T11:56:46.666Z,14772.00
2019-04-21T11:57:49.807Z,14708.00
2019-04-21T11:58:47.784Z,14652.00
2019-04-21T11:59:47.926Z,14660.00
2019-04-21T12:00:47.479Z,14656.00
2019-04-21T12:01:47.615Z,14664.00
2019-04-21T12:02:47.746Z,14640.00
2019-04-21T12:03:47.535Z,14628.00
2019-04-21T12:04:47.557Z,14640.00
2019-04-21T12:05:47.716Z,14580.00
2019-04-21T12:06:48.834Z,14524.00
2019-04-21T12:07:47.172Z,14432.00
2019-04-21T12:08:49.946Z,14356.00
2019-04-21T12:09:47.799Z,14340.00
2019-04-21T12:10:47.270Z,14300.00
2019-04-21T12:11:47.428Z,14348.00
2019-04-21T12:12:47.534Z,14356.00
2019-04-21T12:13:47.819Z,14300.00
2019-04-21T12:14:46.485Z,14268.00
2019-04-21T12:15:47.146Z,14280.00
2019-04-21T12:16:46.747Z,14228.00
2019-04-21T12:17:47.834Z,14232.00
2019-04-21T12:18:47.187Z,14208.00
2019-04-21T12:19:46.543Z,14176.00
2019-04-21T12:20:47.330Z,14236.00
2019-04-21T12:21:57.598Z,14168.00
2019-04-21T12:22:47.428Z,14120.00
2019-04-21T12:23:46.368Z,14160.00
2019-04-21T12:24:47.077Z,14064.00
2019-04-21T12:25:47.338Z,14080.00
2019-04-21T12:26:46.437Z,14008.00
2019-04-21T12:27:47.772Z,13988.00
2019-04-21T12:28:46.320Z,13908.00
2019-04-21T12:29:46.322Z,13856.00
2019-04-21T12:30:47.375Z,13892.00
2019-04-21T12:31:47.556Z,13764.00
2019-04-21T12:32:46.351Z,13792.00
2019-04-21T12:33:46.261Z,13660.00
2019-04-21T12:34:48.894Z,13672.00
2019-04-21T12:35:46.270Z,13648.00
2019-04-21T12:36:46.500Z,13556.00
2019-04-21T12:37:46.879Z,13496.00
2019-04-21T12:38:50.907Z,13484.00
2019-04-21T12:39:46.206Z,13464.00
2019-04-21T12:40:46.539Z,13452.00
2019-04-21T12:41:46.680Z,13380.00
2019-04-21T12:42:46.167Z,13416.00
2019-04-21T12:43:46.585Z,13440.00
2019-04-21T12:44:47.444Z,13444.00
2019-04-21T12:45:46.161Z,13396.00
2019-04-21T12:46:46.128Z,13344.00
2019-04-21T12:47:49.912Z,13280.00
2019-04-21T12:48:46.237Z,13212.00
2019-04-21T12:49:46.099Z,13128.00
2019-04-21T12:50:46.110Z,13080.00
2019-04-21T12:51:46.194Z,13064.00
2019-04-21T12:52:47.351Z,13056.00
2019-04-21T12:53:46.057Z,13068.00
2019-04-21T12:54:46.047Z,12380.00
2019-04-21T12:55:46.702Z,12928.00
2019-04-21T12:56:47.542Z,12988.00
2019-04-21T12:57:46.007Z,12828.00
2019-04-21T12:58:47.110Z,12836.00
2019-04-21T12:59:46.710Z,12808.00
2019-04-21T13:00:47.146Z,12860.00
2019-04-21T13:01:45.958Z,12920.00
2019-04-21T13:02:45.946Z,12824.00
2019-04-21T13:03:45.992Z,12724.00
2019-04-21T13:04:46.209Z,12716.00
2019-04-21T13:05:45.945Z,12604.00
2019-04-21T13:06:45.915Z,12576.00
2019-04-21T13:07:45.903Z,12644.00
2019-04-21T13:08:54.495Z,12712.00
2019-04-21T13:09:52.697Z,12652.00
2019-04-21T13:10:46.403Z,12572.00
2019-04-21T13:11:46.861Z,12492.00
2019-04-21T13:12:45.960Z,12404.00
2019-04-21T13:13:46.024Z,12480.00
2019-04-21T13:14:45.820Z,12368.00